Time;durP1;ratioP1;P1;durP2;ratioP2;P2;SDS_P1;SDS_P2;PMS_P1;PMS_P2;Temp;Humidity;BMP_temperature;BMP_pressure;BME280_temperature;BME280_humidity;BME280_pressure;Samples;Min_cycle;Max_cycle;Signal;HPM_P1;HPM_P2
2022/02/02 04:51:43;;;;;;;10.67;3.90;;;;;;;10.92;57.23;98552.41;6948091;28;20640;-89
2022/02/02 04:55:25;;;;;;;9.93;3.83;;;;;;;11.25;57.78;98628.66;6948312;28;20199;-89
2022/02/02 04:58:57;;;;;;;8.93;4.13;;;;;;;11.12;57.86;98588.25;6948744;28;20206;-88
2022/02/02 05:03:17;;;;;;;8.83;3.63;;;;;;;10.74;58.41;98567.63;6951357;28;20222;-88
2022/02/02 05:06:25;;;;;;;10.17;3.27;;;;;;;10.96;59.25;98593.28;6924653;28;20210;-88
2022/02/02 05:09:57;;;;;;;10.83;4.20;;;;;;;11.45;59.04;98629.41;6925872;28;20215;-88
2022/02/02 05:17:13;;;;;;;13.40;4.00;;;;;;;11.77;57.63;98641.13;6961136;28;20194;-88
2022/02/02 05:21:14;;;;;;;9.70;4.00;;;;;;;11.44;57.06;98648.50;6975921;28;20219;-87
2022/02/02 05:44:08;;;;;;;11.47;3.97;;;;;;;11.58;56.39;98633.91;6950920;28;20222;-92
2022/02/02 05:51:23;;;;;;;10.80;4.50;;;;;;;10.63;56.92;98614.13;6963635;28;20227;-94
2022/02/02 05:54:45;;;;;;;13.20;4.27;;;;;;;11.07;56.54;98633.91;6965743;28;20210;-93
2022/02/02 05:58:16;;;;;;;13.00;3.77;;;;;;;11.18;56.86;98667.50;6971767;28;20233;-92
2022/02/02 06:01:44;;;;;;;12.57;4.03;;;;;;;10.64;56.89;98632.75;6960321;28;20222;-89
2022/02/02 06:05:08;;;;;;;9.07;3.60;;;;;;;10.69;56.70;98622.16;6947040;28;20575;-91
2022/02/02 06:08:31;;;;;;;15.47;4.33;;;;;;;11.11;56.02;98669.41;6941002;28;20530;-91
2022/02/02 06:11:53;;;;;;;12.53;3.90;;;;;;;11.15;56.13;98665.25;6944368;28;20693;-88
2022/02/02 06:15:17;;;;;;;9.37;3.73;;;;;;;11.17;56.08;98666.66;6945814;28;20206;-89
2022/02/02 06:18:40;;;;;;;14.40;4.37;;;;;;;11.46;55.73;98668.84;6954712;28;20202;-88
2022/02/02 06:22:33;;;;;;;10.40;3.60;;;;;;;11.60;55.44;98667.78;6954017;28;20258;-90
2022/02/02 06:25:58;;;;;;;11.83;3.87;;;;;;;11.55;55.00;98672.97;6954727;28;20467;-92
2022/02/02 06:29:21;;;;;;;9.90;4.10;;;;;;;11.32;55.36;98653.75;6957308;28;20195;-90
2022/02/02 06:32:47;;;;;;;10.53;3.90;;;;;;;11.15;55.85;98647.16;6949114;28;20231;-90
2022/02/02 06:36:11;;;;;;;10.40;4.03;;;;;;;11.42;55.72;98677.59;6928861;28;20199;-90
2022/02/02 06:39:33;;;;;;;14.57;4.33;;;;;;;10.92;56.67;98668.41;6925972;28;20230;-91
2022/02/02 06:42:55;;;;;;;13.33;4.27;;;;;;;10.97;57.42;98708.22;6953407;28;20223;-91
2022/02/02 06:46:18;;;;;;;13.47;4.53;;;;;;;10.98;58.95;98701.81;6951521;28;20221;-90
2022/02/02 06:49:44;;;;;;;13.00;4.70;;;;;;;11.49;55.89;98673.00;6903337;23;20252;-91
2022/02/02 06:53:20;;;;;;;13.03;4.87;;;;;;;11.44;55.86;98722.22;6945912;28;20269;-92
2022/02/02 06:56:47;;;;;;;14.73;4.37;;;;;;;11.07;56.69;98741.00;6932389;28;20222;-89
2022/02/02 07:00:35;;;;;;;10.80;3.93;;;;;;;11.34;55.39;98732.63;6908326;28;20227;-90
2022/02/02 07:04:22;;;;;;;16.83;4.77;;;;;;;11.23;55.72;98752.16;6906696;28;20394;-90
2022/02/02 07:08:06;;;;;;;11.23;4.03;;;;;;;10.95;55.36;98737.28;6924674;28;20227;-93
2022/02/02 07:11:39;;;;;;;12.80;4.10;;;;;;;11.06;55.59;98728.56;6914721;28;20596;-92
2022/02/02 07:15:17;;;;;;;8.80;4.67;;;;;;;11.45;55.19;98771.66;6922699;28;20191;-93
2022/02/02 07:18:50;;;;;;;11.53;4.50;;;;;;;11.37;55.49;98745.72;6923318;28;20224;-92
2022/02/02 07:22:25;;;;;;;9.63;4.20;;;;;;;11.04;55.76;98717.16;6914041;28;20208;-93
2022/02/02 07:26:24;;;;;;;12.77;4.73;;;;;;;11.62;55.09;98771.00;6919969;28;20254;-93
2022/02/02 07:29:56;;;;;;;13.20;4.70;;;;;;;11.53;54.97;98791.16;6911831;28;20228;-90
2022/02/02 07:33:26;;;;;;;14.27;4.23;;;;;;;11.25;56.13;98784.34;6927538;28;20219;-93
2022/02/02 07:36:49;;;;;;;13.23;4.30;;;;;;;11.46;55.24;98773.31;6925299;28;20203;-93
2022/02/02 07:40:12;;;;;;;13.80;4.10;;;;;;;11.49;55.34;98783.69;6923178;28;20268;-92
2022/02/02 07:43:40;;;;;;;10.47;3.87;;;;;;;11.72;55.01;98784.91;6923164;28;20207;-92
2022/02/02 07:47:07;;;;;;;7.60;3.47;;;;;;;11.47;54.91;98783.91;6920820;28;20222;-91
2022/02/02 07:50:33;;;;;;;12.47;3.77;;;;;;;11.59;54.58;98735.50;6894942;28;20243;-90
2022/02/02 07:53:59;;;;;;;10.57;4.07;;;;;;;11.69;54.78;98798.00;6893233;28;20200;-90
2022/02/02 07:57:26;;;;;;;7.30;3.63;;;;;;;11.07;55.79;98751.78;6891947;28;20238;-90
2022/02/02 08:00:48;;;;;;;12.73;4.30;;;;;;;11.64;55.26;98814.03;6892822;28;20211;-90
2022/02/02 08:04:12;;;;;;;10.50;4.10;;;;;;;11.00;55.78;98762.59;6911076;28;20226;-90
2022/02/02 08:07:38;;;;;;;9.57;3.83;;;;;;;11.69;55.40;98825.84;6916388;28;20231;-91
2022/02/02 08:11:05;;;;;;;12.83;4.40;;;;;;;11.38;57.19;98835.59;6918286;28;20270;-91
2022/02/02 08:14:28;;;;;;;13.30;4.83;;;;;;;11.41;56.12;98829.81;6920018;28;20227;-91
2022/02/02 08:17:51;;;;;;;10.23;4.50;;;;;;;11.08;56.46;98783.97;6921497;28;20238;-90
2022/02/02 08:21:14;;;;;;;15.60;4.70;;;;;;;11.81;54.97;98834.13;6911807;28;20199;-90
2022/02/02 08:24:36;;;;;;;14.60;4.63;;;;;;;11.30;55.54;98790.78;6919972;28;20200;-90
2022/02/02 08:28:01;;;;;;;10.30;4.30;;;;;;;11.96;54.65;98840.94;6895930;28;20221;-90
2022/02/02 08:31:24;;;;;;;15.67;5.00;;;;;;;12.06;55.12;98881.84;6893180;28;20239;-91
2022/02/02 08:34:49;;;;;;;21.10;5.00;;;;;;;11.91;55.54;98856.09;6891503;28;20231;-91
2022/02/02 08:38:17;;;;;;;12.47;4.90;;;;;;;12.31;54.61;98857.63;6895622;28;20219;-90
2022/02/02 08:41:43;;;;;;;17.20;4.53;;;;;;;11.95;55.52;98877.09;6917133;28;20227;-91
2022/02/02 08:45:17;;;;;;;12.73;3.93;;;;;;;11.69;55.81;98860.94;6917571;28;20207;-91
2022/02/02 08:48:42;;;;;;;9.60;4.00;;;;;;;11.91;55.88;98872.31;6917576;28;20715;-91
2022/02/02 08:52:04;;;;;;;11.50;4.60;;;;;;;11.63;56.15;98874.47;6916733;28;20230;-91
2022/02/02 08:55:54;;;;;;;13.33;5.00;;;;;;;12.19;54.83;98878.25;6915040;28;20219;-91
2022/02/02 08:59:22;;;;;;;14.13;4.50;;;;;;;11.98;55.30;98881.25;6916009;28;20828;-91
2022/02/02 09:02:55;;;;;;;15.40;4.37;;;;;;;11.66;55.91;98847.03;6907320;28;20352;-91
2022/02/02 09:06:17;;;;;;;13.40;3.63;;;;;;;12.45;54.16;98870.06;6913187;28;20574;-91
2022/02/02 09:09:52;;;;;;;12.83;4.03;;;;;;;12.49;54.15;98891.03;6915261;28;20319;-90
2022/02/02 09:21:13;;;;;;;11.37;4.20;;;;;;;12.07;55.59;98901.59;6897252;28;20324;-89
2022/02/02 09:24:33;;;;;;;13.73;4.77;;;;;;;11.82;54.99;98849.28;6895677;28;20212;-89
2022/02/02 09:31:49;;;;;;;11.93;3.93;;;;;;;12.88;53.81;98920.59;6897928;28;20310;-88
2022/02/02 09:35:11;;;;;;;13.33;4.00;;;;;;;12.45;54.15;98908.72;6898704;28;20320;-88
2022/02/02 09:38:32;;;;;;;14.53;4.77;;;;;;;12.29;54.36;98920.03;6892710;28;20596;-88
2022/02/02 09:42:02;;;;;;;11.03;4.43;;;;;;;12.93;52.40;98952.44;6896588;28;20208;-87
2022/02/02 09:45:26;;;;;;;12.93;4.53;;;;;;;12.19;54.04;98962.91;6895764;28;20204;-90
2022/02/02 09:48:53;;;;;;;14.57;4.63;;;;;;;12.30;54.20;98973.06;6899997;28;20227;-89
2022/02/02 09:52:17;;;;;;;17.40;4.47;;;;;;;12.53;53.29;98967.16;6919111;28;20225;-91
2022/02/02 09:55:55;;;;;;;17.00;4.73;;;;;;;12.36;53.95;98974.09;6919688;28;20196;-89
2022/02/02 09:59:32;;;;;;;14.83;5.03;;;;;;;12.28;53.81;98961.63;6915917;28;20219;-88
2022/02/02 10:03:21;;;;;;;12.00;4.30;;;;;;;12.21;53.93;98965.41;6918870;28;20749;-86
2022/02/02 10:06:54;;;;;;;13.80;4.13;;;;;;;12.74;52.86;98943.34;6919060;28;20206;-87
2022/02/02 10:14:14;;;;;;;17.63;4.73;;;;;;;13.12;51.02;98973.16;6902493;28;20234;-89
2022/02/02 10:17:36;;;;;;;20.60;5.10;;;;;;;13.06;50.75;98972.16;6912977;28;20297;-89
2022/02/02 10:20:58;;;;;;;12.73;4.87;;;;;;;13.19;50.83;98980.22;6918385;28;20199;-89
2022/02/02 10:24:45;;;;;;;10.17;4.07;;;;;;;12.91;50.13;98965.31;6919617;28;20212;-88
2022/02/02 10:28:09;;;;;;;16.37;4.50;;;;;;;12.82;50.83;98972.88;6918658;28;20232;-88
2022/02/02 10:31:38;;;;;;;13.37;4.13;;;;;;;11.93;50.79;98886.47;6929780;28;20234;-88
2022/02/02 10:35:00;;;;;;;12.30;4.33;;;;;;;13.01;50.33;98976.56;6921577;28;20564;-89
2022/02/02 10:38:26;;;;;;;12.60;4.27;;;;;;;12.72;49.91;98982.47;6919494;28;20274;-88
2022/02/02 10:41:53;;;;;;;11.40;4.53;;;;;;;12.78;48.83;98987.03;6917965;28;20208;-89
2022/02/02 10:45:19;;;;;;;16.83;4.67;;;;;;;12.36;48.59;98990.31;6917777;28;20215;-88
2022/02/02 10:48:45;;;;;;;13.23;3.83;;;;;;;12.28;49.78;98971.63;6921623;28;20231;-88
2022/02/02 10:52:12;;;;;;;12.63;3.97;;;;;;;12.64;49.90;98996.25;6921978;28;20235;-89
2022/02/02 10:55:55;;;;;;;13.17;3.97;;;;;;;12.39;50.36;98962.84;6902304;28;20212;-90
2022/02/02 10:59:30;;;;;;;14.40;4.57;;;;;;;12.63;49.31;98929.69;6918675;28;20217;-90
2022/02/02 11:06:38;;;;;;;12.00;3.90;;;;;;;12.72;50.35;98980.63;6919957;28;20216;-89
2022/02/02 11:10:00;;;;;;;10.87;4.03;;;;;;;12.94;49.75;98984.69;6932284;28;20221;-90
2022/02/02 11:13:22;;;;;;;12.57;4.13;;;;;;;12.72;49.87;98986.03;6943455;28;20224;-90
2022/02/02 11:16:48;;;;;;;14.30;4.33;;;;;;;13.26;49.37;98969.31;6940563;28;20207;-90
2022/02/02 11:20:13;;;;;;;11.90;4.30;;;;;;;12.99;48.10;98895.56;6941184;28;20714;-90
2022/02/02 11:23:42;;;;;;;12.70;4.30;;;;;;;13.34;48.12;98991.56;6941534;28;20207;-89
2022/02/02 11:27:04;;;;;;;16.60;4.43;;;;;;;12.84;49.73;98988.88;6941857;28;20235;-89
2022/02/02 11:30:40;;;;;;;14.67;4.77;;;;;;;12.69;50.41;98991.03;6933662;28;20223;-89
2022/02/02 11:34:03;;;;;;;16.50;4.70;;;;;;;12.81;49.04;98983.91;6922131;28;20376;-88
2022/02/02 11:37:25;;;;;;;12.23;4.20;;;;;;;13.02;48.77;98998.00;6914779;28;20208;-89
2022/02/02 11:41:15;;;;;;;9.23;3.90;;;;;;;12.74;48.47;98996.66;6916699;28;20695;-89
2022/02/02 11:44:47;;;;;;;11.70;3.90;;;;;;;12.56;48.75;99008.13;6889939;28;20286;-88
2022/02/02 11:48:15;;;;;;;11.33;4.53;;;;;;;12.67;48.28;98995.81;6889890;28;20279;-89
2022/02/02 11:51:39;;;;;;;14.03;4.30;;;;;;;13.02;47.57;98983.63;6895369;28;20222;-89
2022/02/02 11:55:02;;;;;;;16.87;4.03;;;;;;;12.76;48.72;98995.34;6916178;28;20223;-89
2022/02/02 11:58:31;;;;;;;15.20;3.83;;;;;;;12.59;48.39;98974.44;6916959;28;20224;-89
2022/02/02 12:02:11;;;;;;;12.57;4.03;;;;;;;12.90;48.65;98990.72;6916181;28;20211;-89
2022/02/02 12:05:49;;;;;;;16.13;4.53;;;;;;;12.88;48.75;98982.00;6915292;28;20207;-89
2022/02/02 12:09:24;;;;;;;15.93;4.10;;;;;;;12.70;47.88;98938.59;6903492;28;20273;-90
2022/02/02 12:36:01;;;;;;;11.47;4.87;;;;;;;13.18;49.00;99024.56;6916494;28;20210;-88
2022/02/02 12:47:21;;;;;;;16.67;4.80;;;;;;;13.98;47.47;99034.66;6916243;28;20188;-89
2022/02/02 12:58:10;;;;;;;14.73;3.93;;;;;;;13.04;46.89;99020.25;6915471;28;20361;-89
2022/02/02 13:01:32;;;;;;;9.47;4.00;;;;;;;12.92;47.15;98946.16;6919538;28;20207;-87
2022/02/02 13:04:55;;;;;;;8.73;3.87;;;;;;;13.16;47.42;99026.66;6920505;28;20691;-87
2022/02/02 13:08:20;;;;;;;12.53;4.07;;;;;;;13.06;47.51;99050.66;6919607;28;20216;-87
2022/02/02 13:11:57;;;;;;;13.93;3.90;;;;;;;13.75;46.74;99050.69;6918077;28;20222;-87
2022/02/02 13:15:31;;;;;;;14.13;4.87;;;;;;;13.46;47.62;99048.59;6920243;28;20195;-86
2022/02/02 13:18:58;;;;;;;9.27;4.43;;;;;;;13.07;47.34;99037.94;6920917;28;20227;-86
2022/02/02 13:22:20;;;;;;;11.13;4.73;;;;;;;13.18;48.28;99078.72;6920134;28;20246;-89
2022/02/02 13:25:44;;;;;;;14.93;4.63;;;;;;;12.72;52.26;99096.09;6919124;28;20199;-88
2022/02/02 13:29:12;;;;;;;12.30;4.20;;;;;;;12.49;54.19;99131.72;6920836;28;20224;-89
2022/02/02 13:32:45;;;;;;;18.93;11.90;;;;;;;12.07;54.95;99115.94;6921357;28;20208;-89
2022/02/02 13:36:22;;;;;;;13.03;8.30;;;;;;;12.40;54.25;99103.22;6920357;28;20261;-89
2022/02/02 13:43:54;;;;;;;14.67;4.80;;;;;;;12.29;54.36;99132.78;6920169;28;20783;-89
2022/02/02 13:51:27;;;;;;;13.00;4.10;;;;;;;12.69;53.68;99140.66;6869329;28;20575;-89
2022/02/02 13:54:56;;;;;;;15.10;6.13;;;;;;;12.90;52.67;99112.50;6894176;28;20227;-90
2022/02/02 13:58:44;;;;;;;17.33;7.43;;;;;;;12.93;52.23;99136.47;6894397;28;20223;-91
2022/02/02 14:03:44;;;;;;;12.23;5.07;;;;;;;13.54;50.97;99143.13;6904048;28;20212;-91
2022/02/02 14:06:16;;;;;;;11.43;4.57;;;;;;;13.28;50.73;99149.47;6919285;28;20204;-91
2022/02/02 14:09:58;;;;;;;10.47;4.43;;;;;;;13.48;51.41;99171.06;6919432;28;20424;-91
2022/02/02 14:31:44;;;;;;;19.43;8.80;;;;;;;13.39;53.93;99169.66;6918180;28;20750;-91
2022/02/02 14:35:09;;;;;;;18.80;8.97;;;;;;;13.73;51.59;99172.84;6912353;28;20644;-90
2022/02/02 14:38:37;;;;;;;16.03;11.33;;;;;;;13.72;51.38;99151.38;6917194;28;20239;-89
2022/02/02 14:42:08;;;;;;;25.00;11.93;;;;;;;13.74;51.19;99171.78;6918256;28;20235;-89
2022/02/02 14:45:35;;;;;;;9.03;3.90;;;;;;;14.06;50.63;99170.78;6917974;28;20663;-89
2022/02/02 14:49:03;;;;;;;8.57;4.30;;;;;;;13.98;49.34;99132.25;6918839;28;20723;-89
2022/02/02 14:52:34;;;;;;;12.07;3.90;;;;;;;14.16;49.65;99183.88;6918611;28;20219;-88
2022/02/02 14:56:26;;;;;;;9.60;3.83;;;;;;;13.76;49.90;99174.28;6918598;28;20195;-90
2022/02/02 15:26:49;;;;;;;9.80;4.50;;;;;;;12.73;54.19;99176.22;6896965;28;20708;-86
2022/02/02 15:29:58;;;;;;;11.50;6.30;;;;;;;12.67;53.99;99153.56;6917526;28;20223;-87
2022/02/02 15:33:24;;;;;;;12.67;5.40;;;;;;;13.05;53.82;99181.63;6916385;28;20227;-88
2022/02/02 15:40:28;;;;;;;11.97;4.80;;;;;;;12.70;53.51;99165.84;6899119;28;20227;-90
2022/02/02 15:44:52;;;;;;;11.97;4.70;;;;;;;12.91;54.14;99235.94;6915222;28;20199;-88
2022/02/02 15:55:03;;;;;;;12.40;4.70;;;;;;;13.38;52.51;99224.84;6898655;28;20234;-90
2022/02/02 15:58:29;;;;;;;14.77;6.67;;;;;;;12.80;53.79;99237.41;6916410;28;20277;-88
2022/02/02 16:05:38;;;;;;;9.87;4.30;;;;;;;12.80;54.14;99237.41;6917459;28;20203;-88
2022/02/02 16:09:13;;;;;;;9.40;4.43;;;;;;;12.51;54.65;99234.31;6888760;28;20228;-89
2022/02/02 16:12:41;;;;;;;10.80;4.80;;;;;;;12.53;55.05;99238.47;6910463;28;20219;-88
2022/02/02 16:16:13;;;;;;;6.67;4.50;;;;;;;12.63;55.20;99251.59;6914303;28;20202;-88
2022/02/02 16:24:37;;;;;;;9.10;4.13;;;;;;;12.52;54.73;99217.84;6914886;28;20362;-89
2022/02/02 16:38:06;;;;;;;6.97;3.67;;;;;;;12.16;56.11;99263.34;6917135;28;20636;-91
2022/02/02 16:45:07;;;;;;;11.40;4.93;;;;;;;12.19;56.83;99281.03;6921072;28;20200;-88
2022/02/02 16:48:28;;;;;;;8.30;3.73;;;;;;;12.42;56.38;99285.06;6920999;28;20259;-90
2022/02/02 16:51:52;;;;;;;11.37;4.10;;;;;;;12.20;56.05;99297.06;6919817;28;20342;-87
2022/02/02 16:55:22;;;;;;;7.60;4.33;;;;;;;12.42;55.18;99292.31;6920743;28;20195;-87
2022/02/02 17:25:09;;;;;;;9.73;5.70;;;;;;;11.80;56.86;99264.69;6919396;28;20210;-86
2022/02/02 17:32:08;;;;;;;12.73;6.77;;;;;;;11.59;57.89;99294.50;6914048;28;20192;-89
2022/02/02 17:35:38;;;;;;;8.73;5.40;;;;;;;11.83;57.21;99288.59;6919971;28;20210;-90
2022/02/02 17:39:05;;;;;;;10.13;5.40;;;;;;;11.64;58.13;99313.66;6918608;28;20254;-90
2022/02/02 17:42:59;;;;;;;9.83;4.97;;;;;;;11.99;56.81;99321.50;6919323;28;20192;-90
2022/02/02 18:02:09;;;;;;;10.87;4.97;;;;;;;11.41;58.33;99338.22;6886077;28;20673;-87
2022/02/02 18:13:03;;;;;;;9.00;8.00;;;;;;;11.30;58.61;99344.16;6918936;28;20220;-92
2022/02/02 18:20:10;;;;;;;16.10;9.53;;;;;;;11.17;58.30;99316.22;6919713;28;20694;-89
2022/02/02 18:23:46;;;;;;;11.80;6.60;;;;;;;11.11;58.70;99312.41;6919015;28;20201;-91
2022/02/02 18:27:15;;;;;;;7.83;5.60;;;;;;;11.06;58.54;99341.88;6921365;28;20207;-92
2022/02/02 18:30:51;;;;;;;10.93;8.10;;;;;;;11.02;58.93;99310.06;6920541;28;20271;-88
2022/02/02 18:34:23;;;;;;;10.20;6.97;;;;;;;11.46;57.61;99357.31;6918167;28;20672;-87
2022/02/02 18:49:02;;;;;;;21.03;13.87;;;;;;;11.20;56.58;99388.69;6891449;28;20248;-86
2022/02/02 18:52:47;;;;;;;14.77;12.57;;;;;;;10.68;57.41;99370.16;6911911;28;20288;-86
2022/02/02 18:56:26;;;;;;;20.63;14.40;;;;;;;10.72;57.27;99374.13;6927534;28;20199;-88
2022/02/02 19:00:10;;;;;;;14.37;11.00;;;;;;;10.84;57.19;99387.94;6933844;28;20237;-88
2022/02/02 19:03:54;;;;;;;13.83;10.67;;;;;;;10.51;57.90;99368.72;6920376;28;20208;-88
2022/02/02 19:07:31;;;;;;;15.03;11.10;;;;;;;10.24;58.28;99403.66;6917727;28;20211;-87
2022/02/02 19:40:39;;;;;;;15.30;10.57;;;;;;;9.94;56.84;99366.97;6865268;28;20226;-86
2022/02/02 19:55:25;;;;;;;16.53;11.77;;;;;;;9.95;57.79;99409.88;6925149;28;20219;-85
2022/02/02 20:06:21;;;;;;;13.20;8.80;;;;;;;9.62;57.70;99396.97;6915686;28;20202;-85
2022/02/02 20:09:55;;;;;;;14.27;8.20;;;;;;;8.74;58.76;99349.38;6916949;28;20223;-84
2022/02/02 20:13:19;;;;;;;10.97;7.77;;;;;;;8.93;60.57;99421.50;6916133;28;20227;-85
2022/02/02 20:16:41;;;;;;;10.43;8.57;;;;;;;8.95;61.00;99424.00;6916051;28;20226;-84
2022/02/02 20:20:12;;;;;;;14.93;10.20;;;;;;;8.59;61.28;99396.84;6917935;28;20232;-85
2022/02/02 20:23:39;;;;;;;13.83;9.73;;;;;;;9.22;60.29;99416.19;6908945;28;20207;-86
2022/02/02 20:27:02;;;;;;;10.67;6.90;;;;;;;9.35;59.50;99427.19;6916983;28;20353;-87
2022/02/02 20:30:25;;;;;;;13.00;8.60;;;;;;;9.07;60.04;99436.00;6917751;28;20583;-87
2022/02/02 20:33:47;;;;;;;7.43;5.50;;;;;;;8.83;59.60;99372.47;6915051;28;20716;-87
2022/02/02 20:37:10;;;;;;;5.93;5.33;;;;;;;8.62;60.38;99360.72;6916432;28;20264;-87
2022/02/02 20:40:32;;;;;;;7.87;5.30;;;;;;;9.22;59.54;99408.94;6917092;28;20284;-85
2022/02/02 20:43:59;;;;;;;10.40;5.93;;;;;;;8.24;60.67;99289.97;6915905;28;20204;-85
2022/02/02 21:05:51;;;;;;;8.30;6.57;;;;;;;9.34;60.65;99430.88;6917497;28;20196;-86
2022/02/02 21:09:30;;;;;;;8.93;6.93;;;;;;;9.40;60.40;99428.28;6918475;28;20235;-86
2022/02/02 21:16:36;;;;;;;7.60;6.67;;;;;;;9.34;60.94;99447.03;6921498;28;20209;-85
2022/02/02 21:20:08;;;;;;;11.80;6.33;;;;;;;9.46;60.87;99448.28;6920705;28;20229;-86
2022/02/02 21:23:43;;;;;;;8.63;6.60;;;;;;;9.35;60.97;99430.72;6922407;28;20202;-86
2022/02/02 21:27:19;;;;;;;9.63;5.77;;;;;;;9.09;61.34;99367.56;6922116;28;20224;-85
2022/02/02 21:30:42;;;;;;;6.83;5.53;;;;;;;9.85;60.70;99456.94;6922206;28;20193;-86
2022/02/02 21:34:04;;;;;;;9.70;5.53;;;;;;;9.37;60.24;99374.84;6920637;28;20233;-86
2022/02/02 21:37:26;;;;;;;7.67;6.13;;;;;;;9.85;60.17;99430.00;6922216;28;20199;-86
2022/02/02 21:40:53;;;;;;;8.63;6.97;;;;;;;9.23;60.10;99321.00;6922952;28;20218;-85
2022/02/02 21:44:15;;;;;;;9.60;7.37;;;;;;;9.18;60.57;99335.03;6920837;28;20235;-86
2022/02/02 21:47:36;;;;;;;9.83;6.70;;;;;;;9.50;60.04;99350.81;6921934;28;20235;-87
2022/02/02 21:51:03;;;;;;;10.57;8.17;;;;;;;9.02;61.34;99357.72;6921926;28;20199;-86
2022/02/02 21:54:25;;;;;;;12.67;8.93;;;;;;;9.38;63.06;99448.31;6922816;28;20232;-85
2022/02/02 21:57:48;;;;;;;9.10;7.07;;;;;;;9.62;60.84;99386.19;6932202;28;20223;-86
